Time;durP1;ratioP1;P1;durP2;ratioP2;P2;SDS_P1;SDS_P2;PMS_P1;PMS_P2;Temp;Humidity;BMP_temperature;BMP_pressure;BME280_temperature;BME280_humidity;BME280_pressure;Samples;Min_cycle;Max_cycle;Signal;HPM_P1;HPM_P2
2022/07/08 00:00:45;;;;;;;0.20;0.20;;;16.20;68.40;;;17.79;57.89;102922.31;2047458;28;20134;-61
2022/07/08 00:01:48;;;;;;;0.20;0.20;;;16.30;68.60;;;17.80;57.78;102909.47;2048650;28;20065;-60
2022/07/08 00:02:52;;;;;;;0.20;0.20;;;16.20;68.70;;;17.79;57.78;102919.59;2049359;28;20062;-60
2022/07/08 00:03:54;;;;;;;0.20;0.20;;;16.20;68.90;;;17.79;57.88;102913.34;2051868;28;20134;-59
2022/07/08 00:04:58;;;;;;;0.20;0.20;;;16.20;69.00;;;17.78;58.11;102912.53;2050295;28;20484;-60
2022/07/08 00:06:00;;;;;;;0.10;0.10;;;16.20;69.10;;;17.78;58.45;102914.44;2050314;28;20055;-61
2022/07/08 00:07:04;;;;;;;0.20;0.20;;;16.20;69.20;;;17.77;58.39;102908.19;2049568;28;20050;-60
2022/07/08 00:08:06;;;;;;;0.20;0.20;;;16.20;69.30;;;17.77;58.04;102907.41;2051263;28;20498;-59
2022/07/08 00:09:10;;;;;;;0.20;0.20;;;16.20;69.40;;;17.77;58.50;102902.72;2050271;28;20507;-59
2022/07/08 00:10:14;;;;;;;0.20;0.20;;;16.20;70.00;;;17.76;58.32;102911.25;2054718;28;20059;-60
2022/07/08 00:11:18;;;;;;;0.20;0.20;;;16.20;69.30;;;17.78;58.29;102917.19;2052928;28;20062;-59
2022/07/08 00:12:20;;;;;;;0.30;0.30;;;16.20;69.30;;;17.77;58.21;102908.19;2050642;28;20134;-59
2022/07/08 00:13:23;;;;;;;0.30;0.30;;;16.20;69.40;;;17.76;58.34;102905.78;2051477;28;20130;-60
2022/07/08 00:14:26;;;;;;;0.20;0.20;;;16.20;69.30;;;17.76;58.33;102914.00;2057122;28;20129;-59
2022/07/08 00:15:29;;;;;;;0.20;0.20;;;16.20;69.30;;;17.73;58.04;102907.28;2055157;28;20054;-60
2022/07/08 00:16:33;;;;;;;0.20;0.20;;;16.20;69.20;;;17.73;58.19;102909.19;2053158;28;20562;-59
2022/07/08 00:17:38;;;;;;;0.20;0.20;;;16.20;69.10;;;17.72;57.84;102916.63;2049097;28;20117;-60
2022/07/08 00:18:41;;;;;;;0.17;0.10;;;16.20;69.10;;;17.65;57.89;102899.97;2049370;28;20503;-59
2022/07/08 00:19:48;;;;;;;0.20;0.20;;;16.10;69.00;;;17.72;57.97;102915.81;2053918;28;20058;-60
2022/07/08 00:20:51;;;;;;;0.25;0.25;;;16.10;69.50;;;17.70;57.85;102918.06;2049749;28;20051;-60
2022/07/08 00:21:55;;;;;;;0.20;0.20;;;16.10;69.20;;;17.68;57.92;102909.41;2050673;28;20055;-60
2022/07/08 00:22:58;;;;;;;0.20;0.20;;;16.10;69.30;;;17.64;58.28;102913.97;2051022;28;20051;-60
2022/07/08 00:24:01;;;;;;;0.20;0.20;;;16.10;69.40;;;17.68;58.13;102909.41;2049223;28;20062;-60
2022/07/08 00:25:05;;;;;;;0.20;0.20;;;16.10;69.50;;;17.70;58.32;102915.34;2049864;28;20117;-60
2022/07/08 00:26:08;;;;;;;0.20;0.20;;;16.10;69.60;;;17.70;58.36;102918.06;2049291;28;20134;-60
2022/07/08 00:27:13;;;;;;;0.20;0.20;;;16.10;69.70;;;17.71;58.24;102919.69;2049327;28;20079;-60
2022/07/08 00:28:15;;;;;;;0.20;0.20;;;16.10;69.70;;;17.69;58.51;102914.56;2052966;28;20520;-60
2022/07/08 00:29:19;;;;;;;0.20;0.20;;;16.10;69.80;;;17.68;58.15;102914.88;2051632;28;20125;-60
2022/07/08 00:30:22;;;;;;;0.17;0.17;;;16.10;69.90;;;17.66;58.70;102906.25;2052686;28;20154;-59
2022/07/08 00:31:25;;;;;;;0.20;0.20;;;16.10;70.00;;;17.66;58.49;102903.50;2048904;28;20630;-60
2022/07/08 00:32:28;;;;;;;0.10;0.10;;;16.10;70.00;;;17.65;58.80;102910.09;2050980;28;20130;-59
2022/07/08 00:33:31;;;;;;;0.30;0.30;;;16.10;70.00;;;17.64;58.65;102908.50;2049344;28;20059;-60
2022/07/08 00:34:34;;;;;;;0.30;0.30;;;16.10;70.10;;;17.61;58.93;102909.19;2056159;28;20513;-60
2022/07/08 00:35:37;;;;;;;0.20;0.20;;;16.10;70.10;;;17.59;59.15;102911.44;2052370;28;20467;-60
2022/07/08 00:36:40;;;;;;;0.30;0.30;;;16.00;70.20;;;17.56;59.13;102912.13;2049880;28;20467;-59
2022/07/08 00:37:44;;;;;;;0.28;0.28;;;16.00;70.30;;;17.52;59.25;102911.22;2049150;28;20055;-60
2022/07/08 00:38:46;;;;;;;0.20;0.20;;;16.00;70.40;;;17.51;59.46;102917.78;2049454;28;20185;-59
2022/07/08 00:39:50;;;;;;;0.20;0.20;;;16.00;70.50;;;17.48;59.49;102913.00;2051214;28;20089;-60
2022/07/08 00:40:52;;;;;;;0.20;0.20;;;16.00;70.60;;;17.47;59.41;102914.16;2051034;28;20514;-60
2022/07/08 00:41:57;;;;;;;0.20;0.20;;;16.00;70.50;;;17.45;59.54;102910.97;2051599;28;20124;-59
2022/07/08 00:43:00;;;;;;;0.30;0.30;;;16.00;70.50;;;17.45;59.47;102903.56;2053281;28;20097;-60
2022/07/08 00:44:03;;;;;;;0.22;0.22;;;16.00;71.20;;;17.44;59.35;102903.88;2051603;28;20086;-60
2022/07/08 00:45:08;;;;;;;0.20;0.20;;;15.90;70.60;;;17.43;59.53;102902.25;2053733;28;20046;-60
2022/07/08 00:46:12;;;;;;;0.20;0.20;;;16.00;71.00;;;17.42;59.26;102906.13;2052247;28;20065;-59
2022/07/08 00:47:15;;;;;;;0.20;0.20;;;15.90;70.70;;;17.40;59.47;102911.94;2052232;28;20050;-60
2022/07/08 00:48:17;;;;;;;0.20;0.20;;;15.90;70.80;;;17.39;59.38;102912.28;2051979;28;20568;-60
2022/07/08 00:49:21;;;;;;;0.20;0.20;;;15.90;70.80;;;17.37;59.55;102918.06;2052067;28;20414;-60
2022/07/08 00:50:24;;;;;;;0.20;0.20;;;15.90;71.00;;;17.33;59.64;102900.75;2052685;28;20062;-59
2022/07/08 00:51:29;;;;;;;0.20;0.20;;;15.80;71.00;;;17.32;59.75;102910.09;2051894;28;20054;-60
2022/07/08 00:52:32;;;;;;;0.17;0.17;;;15.80;71.20;;;17.31;59.78;102911.22;2050111;28;20050;-60
2022/07/08 00:53:39;;;;;;;0.20;0.20;;;15.80;71.30;;;17.32;60.02;102912.81;2052118;28;20042;-60
2022/07/08 00:54:42;;;;;;;0.25;0.25;;;15.80;71.40;;;17.32;60.12;102903.81;2051475;28;20186;-59
2022/07/08 00:55:46;;;;;;;0.20;0.20;;;15.80;71.50;;;17.32;59.90;102903.81;2053309;28;20394;-59
2022/07/08 00:56:52;;;;;;;0.20;0.20;;;15.80;71.50;;;17.32;59.86;102906.53;2051330;28;20062;-60
2022/07/08 00:57:56;;;;;;;0.20;0.20;;;15.80;71.60;;;17.32;60.00;102901.91;2052909;28;20141;-60
2022/07/08 00:59:00;;;;;;;0.30;0.30;;;15.70;71.60;;;17.32;60.02;102895.63;2051757;28;20062;-59
2022/07/08 01:00:03;;;;;;;0.20;0.20;;;15.80;71.80;;;17.30;60.11;102898.69;2051454;28;20066;-59
2022/07/08 01:01:07;;;;;;;0.30;0.30;;;15.70;71.90;;;17.30;60.05;102895.97;2051633;28;20058;-60
2022/07/08 01:02:16;;;;;;;0.28;0.28;;;15.70;72.00;;;17.30;60.23;102889.72;2048319;28;20905;-63
2022/07/08 01:03:21;;;;;;;0.20;0.20;;;15.70;72.20;;;17.29;60.01;102891.66;2052818;28;20061;-60
2022/07/08 01:04:38;;;;;;;0.20;0.20;;;15.70;72.10;;;17.24;60.26;102880.13;2066492;23;20058;-70
2022/07/08 01:06:01;;;;;;;0.20;0.20;;;15.70;72.10;;;17.24;60.23;102882.84;2045174;28;20523;-70
2022/07/08 01:07:07;;;;;;;0.20;0.20;;;15.60;72.00;;;17.20;60.36;102885.47;2047340;28;20058;-72
2022/07/08 01:08:10;;;;;;;0.30;0.30;;;15.60;72.10;;;17.18;60.18;102889.66;2054315;28;20165;-71
2022/07/08 01:09:15;;;;;;;0.20;0.20;;;15.60;72.10;;;17.14;60.65;102883.28;2052972;28;20130;-71
2022/07/08 01:10:18;;;;;;;0.20;0.20;;;15.60;72.10;;;17.12;60.57;102888.28;2053235;28;20208;-70
2022/07/08 01:11:21;;;;;;;0.20;0.20;;;15.60;72.10;;;17.09;60.59;102886.22;2053927;28;20121;-70
2022/07/08 01:12:23;;;;;;;0.20;0.20;;;15.60;72.10;;;17.07;60.49;102888.47;2055635;28;20518;-71
2022/07/08 01:13:28;;;;;;;0.20;0.20;;;15.60;72.10;;;17.06;60.84;102886.88;2053700;28;20142;-70
2022/07/08 01:14:31;;;;;;;0.20;0.20;;;15.60;72.20;;;17.04;60.76;102889.16;2054302;28;20077;-71
2022/07/08 01:15:35;;;;;;;0.20;0.20;;;15.50;72.20;;;17.02;60.51;102894.13;2054298;28;20054;-71
2022/07/08 01:16:37;;;;;;;0.20;0.20;;;15.50;72.10;;;17.01;60.81;102903.47;2048867;28;20521;-72
2022/07/08 01:17:42;;;;;;;0.20;0.20;;;15.50;72.20;;;17.01;60.69;102900.72;2056439;28;20057;-70
2022/07/08 01:18:45;;;;;;;0.20;0.20;;;15.50;72.20;;;17.01;60.56;102900.72;2052235;28;20058;-71
2022/07/08 01:19:48;;;;;;;0.20;0.20;;;15.50;72.20;;;17.01;60.66;102906.19;2052781;28;20126;-72
2022/07/08 01:20:52;;;;;;;0.30;0.30;;;15.50;72.90;;;16.98;60.65;102899.47;2053971;28;20078;-71
2022/07/08 01:21:56;;;;;;;0.20;0.20;;;15.50;72.30;;;16.99;60.55;102903.00;2048351;28;20138;-69
2022/07/08 01:22:58;;;;;;;0.20;0.20;;;15.50;72.30;;;16.98;60.62;102901.41;2049463;28;20110;-70
2022/07/08 01:24:01;;;;;;;0.20;0.20;;;15.40;72.30;;;16.97;60.61;102899.78;2055871;28;20446;-70
2022/07/08 01:25:05;;;;;;;0.20;0.20;;;15.40;72.30;;;16.95;60.73;102896.63;2053163;28;20422;-71
2022/07/08 01:26:11;;;;;;;0.20;0.20;;;15.40;72.40;;;16.93;60.47;102898.88;2052102;28;20134;-72
2022/07/08 01:27:13;;;;;;;0.30;0.30;;;15.40;72.40;;;16.92;60.56;102898.06;2049676;28;20509;-70
2022/07/08 01:28:17;;;;;;;0.20;0.20;;;15.30;72.40;;;16.90;60.83;102899.53;2056505;28;20058;-70
2022/07/08 01:29:20;;;;;;;0.20;0.20;;;15.30;72.50;;;16.90;60.78;102899.53;2054953;28;20059;-71
2022/07/08 01:30:23;;;;;;;0.25;0.25;;;15.30;72.60;;;16.89;60.58;102900.66;2056028;28;20062;-70
2022/07/08 01:31:26;;;;;;;0.13;0.13;;;15.30;72.60;;;16.86;60.65;102893.13;2050863;28;20183;-71
2022/07/08 01:32:32;;;;;;;0.20;0.20;;;15.30;72.60;;;16.88;60.84;102896.34;2051257;28;20051;-70
2022/07/08 01:33:35;;;;;;;0.25;0.25;;;15.30;72.70;;;16.86;60.79;102898.59;2054574;28;20050;-70
2022/07/08 01:34:38;;;;;;;0.30;0.30;;;15.30;72.70;;;16.84;60.92;102887.22;2055018;28;20081;-70
2022/07/08 01:35:41;;;;;;;0.20;0.20;;;15.30;72.70;;;16.83;60.93;102893.81;2053485;28;20416;-70
2022/07/08 01:36:46;;;;;;;0.20;0.20;;;15.30;72.80;;;16.80;60.97;102881.63;2054664;28;20849;-70
2022/07/08 01:37:48;;;;;;;0.15;0.15;;;15.20;72.80;;;16.80;60.98;102899.94;2054499;28;20134;-70
2022/07/08 01:38:51;;;;;;;0.20;0.20;;;15.20;72.80;;;16.79;60.99;102888.22;2055987;28;20054;-71
2022/07/08 01:39:54;;;;;;;0.20;0.20;;;15.20;72.90;;;16.76;61.13;102893.56;2053874;28;20094;-71
2022/07/08 01:40:57;;;;;;;0.20;0.20;;;15.20;72.90;;;16.76;61.08;102896.28;2054038;28;20560;-70
2022/07/08 01:42:00;;;;;;;0.20;0.20;;;15.20;72.90;;;16.72;61.15;102890.69;2054466;28;20065;-70
2022/07/08 01:43:06;;;;;;;0.17;0.17;;;15.20;73.10;;;16.69;61.14;102893.28;2045494;28;20066;-70
2022/07/08 01:44:08;;;;;;;0.30;0.30;;;15.20;73.10;;;16.68;61.32;102889.72;2047015;28;20755;-70
2022/07/08 01:45:12;;;;;;;0.30;0.30;;;15.10;73.10;;;16.67;61.49;102900.97;2046585;28;20071;-70
2022/07/08 01:46:15;;;;;;;0.22;0.22;;;15.20;73.20;;;16.66;61.45;102896.66;2043131;28;20082;-70
2022/07/08 01:47:19;;;;;;;0.20;0.20;;;15.20;73.30;;;16.65;61.52;102889.63;2054392;28;20094;-71
2022/07/08 01:48:22;;;;;;;0.20;0.20;;;15.20;73.30;;;16.63;61.58;102897.34;2054967;28;20096;-71
2022/07/08 01:49:26;;;;;;;0.20;0.20;;;15.10;73.30;;;16.62;61.52;102898.47;2055288;28;20132;-71
2022/07/08 01:50:28;;;;;;;0.20;0.20;;;15.10;73.30;;;16.60;61.72;102896.06;2055259;28;20418;-71
2022/07/08 01:51:31;;;;;;;0.20;0.20;;;15.10;73.30;;;16.59;61.64;102893.66;2055402;28;20178;-71
2022/07/08 01:52:35;;;;;;;0.25;0.25;;;15.10;73.40;;;16.58;61.77;102886.59;2055074;28;20134;-70
2022/07/08 01:53:39;;;;;;;0.25;0.25;;;15.10;73.40;;;16.57;61.72;102896.72;2055142;28;20473;-71
2022/07/08 01:54:41;;;;;;;0.30;0.30;;;15.10;73.40;;;16.57;61.75;102895.94;2044891;28;20053;-70
2022/07/08 01:55:45;;;;;;;0.25;0.25;;;15.00;73.50;;;16.57;61.61;102891.25;2044834;28;20173;-71
2022/07/08 01:56:48;;;;;;;0.20;0.20;;;15.00;73.60;;;16.57;61.59;102895.94;2054980;28;20051;-71
2022/07/08 01:57:51;;;;;;;0.20;0.20;;;15.00;73.60;;;16.55;61.68;102893.53;2053897;28;20058;-71
2022/07/08 01:58:54;;;;;;;0.30;0.30;;;15.00;73.70;;;16.53;61.46;102895.78;2055080;28;20078;-72
2022/07/08 01:59:57;;;;;;;0.30;0.30;;;15.00;73.70;;;16.52;61.81;102896.13;2054193;28;20102;-70
2022/07/08 02:00:59;;;;;;;0.20;0.20;;;15.00;73.80;;;16.50;61.86;102888.28;2053060;28;20556;-71
2022/07/08 02:02:03;;;;;;;0.28;0.28;;;15.00;73.80;;;16.50;61.77;102892.91;2055131;28;20525;-70
2022/07/08 02:03:06;;;;;;;0.20;0.20;;;14.90;73.90;;;16.51;61.93;102891.81;2054233;28;20051;-71
2022/07/08 02:04:09;;;;;;;0.20;0.20;;;15.00;74.00;;;16.49;61.99;102894.84;2059163;28;20051;-70
2022/07/08 02:05:12;;;;;;;0.25;0.25;;;14.90;74.00;;;16.47;61.97;102896.31;2060347;28;20102;-70
2022/07/08 02:06:15;;;;;;;0.20;0.20;;;14.90;74.10;;;16.46;62.03;102895.50;2059781;28;20062;-70
2022/07/08 02:07:18;;;;;;;0.30;0.30;;;14.90;74.10;;;16.46;62.01;102897.44;2060442;28;20042;-71
2022/07/08 02:08:23;;;;;;;0.20;0.20;;;14.80;74.20;;;16.43;62.14;102894.22;2060354;28;20077;-70
2022/07/08 02:09:27;;;;;;;0.20;0.20;;;14.80;74.40;;;16.43;62.13;102890.69;2061826;28;20546;-70
2022/07/08 02:12:18;;;;;;;0.20;0.20;;;14.90;74.50;;;16.42;62.16;102894.53;2061547;28;20108;-70
2022/07/08 02:13:13;;;;;;;0.30;0.30;;;14.90;74.60;;;16.42;62.11;102902.72;2051182;28;20137;-70
2022/07/08 02:14:15;;;;;;;0.20;0.20;;;14.80;74.50;;;16.39;62.08;102901.44;2060869;28;20066;-71
2022/07/08 02:15:19;;;;;;;0.20;0.20;;;14.90;74.60;;;16.39;62.08;102906.88;2059450;28;20058;-70
2022/07/08 02:16:21;;;;;;;0.20;0.20;;;14.80;74.60;;;16.36;62.19;102902.09;2060160;28;20055;-71
2022/07/08 02:17:25;;;;;;;0.20;0.20;;;14.80;74.60;;;16.37;62.47;102901.00;2060972;28;20513;-72
2022/07/08 02:18:27;;;;;;;0.20;0.20;;;14.80;74.60;;;16.38;62.34;102899.84;2058968;28;20086;-72
2022/07/08 02:19:31;;;;;;;0.30;0.30;;;14.80;74.70;;;16.39;62.43;102904.16;2060206;28;20046;-71
2022/07/08 02:20:34;;;;;;;0.20;0.20;;;14.80;74.80;;;16.40;62.33;102900.31;2059500;28;20125;-71
2022/07/08 02:21:37;;;;;;;0.20;0.20;;;14.80;74.80;;;16.42;62.56;102908.19;2060140;28;20142;-70
2022/07/08 02:22:40;;;;;;;0.20;0.20;;;14.80;74.90;;;16.42;62.35;102900.00;2060670;28;20089;-71
2022/07/08 02:23:45;;;;;;;0.20;0.20;;;14.80;74.90;;;16.43;62.51;102905.13;2059668;28;20096;-70
2022/07/08 02:24:47;;;;;;;0.20;0.20;;;14.80;74.90;;;16.43;62.57;102910.56;2059899;28;20050;-71
2022/07/08 02:25:51;;;;;;;0.20;0.20;;;14.80;74.90;;;16.43;62.43;102902.38;2060422;28;20053;-70
2022/07/08 02:26:53;;;;;;;0.20;0.20;;;14.80;74.90;;;16.44;62.57;102903.19;2061664;28;20090;-70
2022/07/08 02:27:59;;;;;;;0.20;0.20;;;14.80;74.90;;;16.43;62.39;102901.59;2059537;28;20145;-70
2022/07/08 02:29:05;;;;;;;0.20;0.20;;;14.80;75.50;;;16.43;62.59;102907.84;2050046;28;20343;-70
2022/07/08 02:30:13;;;;;;;0.20;0.20;;;14.80;74.90;;;16.41;62.52;102907.38;2053036;28;20506;-70
2022/07/08 02:31:17;;;;;;;0.20;0.20;;;14.80;74.90;;;16.41;62.29;102910.09;2060517;28;20050;-70
2022/07/08 02:32:20;;;;;;;0.20;0.20;;;14.80;74.90;;;16.39;62.58;102917.78;2052473;28;20078;-70
2022/07/08 02:33:23;;;;;;;0.20;0.20;;;14.80;75.00;;;16.37;62.57;102909.16;2053243;28;20054;-71
2022/07/08 02:34:27;;;;;;;0.22;0.22;;;14.80;75.00;;;16.36;62.16;102913.00;2060111;28;20132;-70
2022/07/08 02:35:30;;;;;;;0.20;0.20;;;14.80;75.20;;;16.35;62.58;102914.13;2060254;28;20413;-70
2022/07/08 02:36:32;;;;;;;0.20;0.20;;;14.80;75.20;;;16.35;62.67;102916.06;2061126;28;20042;-70
2022/07/08 02:37:35;;;;;;;0.20;0.20;;;14.80;75.30;;;16.34;62.75;102909.81;2060003;28;20100;-71
2022/07/08 02:38:38;;;;;;;0.20;0.20;;;14.80;75.30;;;16.33;62.76;102910.94;2060542;28;20050;-71
2022/07/08 02:39:43;;;;;;;0.20;0.20;;;14.80;75.30;;;16.33;62.97;102912.88;2061451;28;20093;-70
2022/07/08 02:40:45;;;;;;;0.20;0.20;;;14.70;75.40;;;16.32;62.74;102909.34;2060675;28;20137;-70
2022/07/08 02:41:49;;;;;;;0.20;0.20;;;14.70;75.40;;;16.32;62.99;102909.34;2061164;28;20081;-69
2022/07/08 02:42:51;;;;;;;0.20;0.20;;;14.70;75.50;;;16.33;62.89;102908.22;2059398;28;20096;-70
2022/07/08 02:43:54;;;;;;;0.28;0.28;;;14.70;75.50;;;16.32;63.03;102912.06;2059941;28;20058;-70
2022/07/08 02:44:56;;;;;;;0.20;0.20;;;14.70;75.60;;;16.31;62.93;102915.94;2052453;28;20524;-70
2022/07/08 02:46:00;;;;;;;0.30;0.30;;;14.70;75.70;;;16.31;63.15;102915.94;2053637;28;20490;-70
2022/07/08 02:47:04;;;;;;;0.30;0.30;;;14.70;75.70;;;16.24;63.02;102904.75;2060288;28;20065;-71
2022/07/08 02:48:07;;;;;;;0.20;0.20;;;14.70;75.80;;;16.31;63.12;102909.69;2054126;28;20117;-70
2022/07/08 02:49:10;;;;;;;0.20;0.20;;;14.70;75.80;;;16.30;63.19;102911.59;2053296;28;20065;-70
2022/07/08 02:50:13;;;;;;;0.20;0.20;;;14.70;75.90;;;16.30;63.33;102914.31;2060683;28;20480;-71
2022/07/08 02:51:15;;;;;;;0.22;0.22;;;14.70;76.00;;;16.30;63.36;102916.25;2060214;28;20092;-70
2022/07/08 02:52:19;;;;;;;0.20;0.20;;;14.70;76.00;;;16.29;63.19;102912.75;2060647;28;20054;-71
2022/07/08 02:53:21;;;;;;;0.10;0.10;;;14.70;76.00;;;16.30;63.38;102914.31;2060962;28;20078;-71
2022/07/08 02:54:25;;;;;;;0.20;0.20;;;14.70;76.10;;;16.29;63.28;102914.66;2060737;28;20469;-70
2022/07/08 02:55:28;;;;;;;0.20;0.20;;;14.70;76.20;;;16.27;63.50;102912.25;2060050;28;20074;-70
2022/07/08 02:56:32;;;;;;;0.20;0.20;;;14.70;76.20;;;16.28;63.55;102915.78;2060419;28;20136;-71
2022/07/08 02:57:37;;;;;;;0.20;0.20;;;14.60;76.20;;;16.27;63.51;102919.63;2060230;28;20105;-70
2022/07/08 02:58:40;;;;;;;0.20;0.20;;;14.60;76.30;;;16.25;63.52;102917.22;2060258;28;20073;-70
2022/07/08 02:59:44;;;;;;;0.25;0.25;;;14.60;76.30;;;16.22;63.54;102917.88;2060768;28;20089;-69
2022/07/08 03:00:48;;;;;;;0.20;0.20;;;14.60;76.40;;;16.21;63.49;102913.56;2060598;28;20130;-71
2022/07/08 03:01:50;;;;;;;0.20;0.20;;;14.60;76.50;;;16.20;63.70;102914.72;2059681;28;20082;-70
2022/07/08 03:02:53;;;;;;;0.30;0.30;;;14.60;76.60;;;16.21;63.79;102910.03;2059072;28;20569;-71
2022/07/08 03:03:56;;;;;;;0.20;0.20;;;14.60;76.70;;;16.19;63.69;102915.81;2060450;28;20061;-71
2022/07/08 03:05:00;;;;;;;0.20;0.20;;;14.60;76.70;;;16.18;63.95;102910.69;2059525;28;20105;-71
2022/07/08 03:06:03;;;;;;;0.30;0.30;;;14.60;76.70;;;16.16;63.84;102913.75;2060174;28;20132;-71
2022/07/08 03:07:07;;;;;;;0.30;0.30;;;14.50;76.60;;;16.15;63.91;102920.34;2060192;28;20064;-71
2022/07/08 03:08:09;;;;;;;0.30;0.30;;;14.50;76.70;;;16.15;64.03;102912.16;2059932;28;20058;-71
2022/07/08 03:09:13;;;;;;;0.20;0.20;;;14.50;76.80;;;16.14;63.99;102915.22;2060761;28;20553;-71
2022/07/08 03:10:16;;;;;;;0.20;0.20;;;14.50;76.90;;;16.14;64.06;102916.00;2050925;28;20117;-71
2022/07/08 03:11:20;;;;;;;0.30;0.30;;;14.50;77.00;;;16.14;64.14;102917.94;2044049;28;20415;-71
2022/07/08 03:12:23;;;;;;;0.30;0.30;;;14.50;77.00;;;16.14;64.15;102923.41;2050846;28;20155;-71
2022/07/08 03:13:25;;;;;;;0.25;0.25;;;14.50;77.10;;;16.15;64.21;102923.06;2059745;28;20058;-71
2022/07/08 03:14:29;;;;;;;0.20;0.20;;;14.50;77.10;;;16.17;64.24;102918.06;2060683;28;20124;-70
2022/07/08 03:15:31;;;;;;;0.22;0.22;;;14.50;77.20;;;16.18;63.95;102927.06;2060335;28;20185;-71
2022/07/08 03:16:35;;;;;;;0.20;0.20;;;14.50;77.30;;;16.19;64.15;102928.63;2060306;28;20601;-71
2022/07/08 03:17:38;;;;;;;0.30;0.30;;;14.50;77.30;;;16.20;63.96;102919.34;2060264;28;20162;-72
2022/07/08 03:18:41;;;;;;;0.20;0.20;;;14.50;77.30;;;16.19;64.02;102917.75;2060971;28;20204;-70
2022/07/08 03:19:43;;;;;;;0.30;0.30;;;14.50;77.40;;;16.16;64.12;102916.47;2060008;28;20081;-70
2022/07/08 03:20:47;;;;;;;0.20;0.20;;;14.50;77.40;;;16.17;64.19;102915.34;2059252;28;20547;-70
2022/07/08 03:21:49;;;;;;;0.30;0.30;;;14.50;77.50;;;16.19;63.97;102918.53;2060264;28;20074;-71
2022/07/08 03:22:53;;;;;;;0.25;0.25;;;14.40;77.50;;;16.19;64.04;102918.53;2059424;28;20142;-70
2022/07/08 03:23:55;;;;;;;0.20;0.20;;;14.40;77.60;;;16.20;64.02;102919.34;2060058;28;20184;-70
2022/07/08 03:24:58;;;;;;;0.30;0.30;;;14.40;77.60;;;16.19;64.15;102912.28;2060667;28;20066;-70
2022/07/08 03:26:01;;;;;;;0.20;0.20;;;14.40;77.80;;;16.19;64.33;102913.09;2059835;28;20137;-70
2022/07/08 03:27:06;;;;;;;0.30;0.30;;;14.40;77.80;;;16.18;64.27;102911.50;2061455;28;20073;-71
2022/07/08 03:28:08;;;;;;;0.20;0.20;;;14.40;77.90;;;16.18;64.37;102924.31;2059560;28;20086;-71
2022/07/08 03:29:12;;;;;;;0.20;0.20;;;14.40;77.90;;;16.17;64.10;102926.25;2060529;28;20046;-71
2022/07/08 03:30:14;;;;;;;0.20;0.20;;;14.40;77.90;;;16.15;64.44;102912.16;2052264;28;20495;-71
2022/07/08 03:31:18;;;;;;;0.20;0.20;;;14.40;78.50;;;16.15;64.37;102914.88;2046208;28;20055;-71
2022/07/08 03:32:20;;;;;;;0.20;0.20;;;14.40;77.90;;;16.15;64.49;102919.53;2052638;28;20058;-71
2022/07/08 03:33:24;;;;;;;0.30;0.30;;;14.40;78.00;;;16.13;64.42;102913.59;2061341;28;20058;-71
2022/07/08 03:34:26;;;;;;;0.30;0.30;;;14.40;78.00;;;16.14;64.61;102918.72;2054561;28;20830;-70
2022/07/08 03:35:35;;;;;;;0.20;0.20;;;14.40;78.10;;;16.15;64.37;102912.16;2047771;28;20059;-71
2022/07/08 03:36:39;;;;;;;0.20;0.20;;;14.40;78.10;;;16.15;64.60;102912.16;2052443;28;20055;-71
2022/07/08 03:37:42;;;;;;;0.20;0.20;;;14.40;78.20;;;16.15;64.78;102909.44;2060674;28;20082;-71
2022/07/08 03:38:45;;;;;;;0.30;0.30;;;14.40;78.30;;;16.17;64.76;102912.63;2059918;28;20482;-71
2022/07/08 03:39:48;;;;;;;0.30;0.30;;;14.40;78.40;;;16.17;65.03;102907.16;2059009;28;20050;-71
2022/07/08 03:42:13;;;;;;;0.20;0.20;;;14.40;78.60;;;16.21;64.94;102910.84;2051713;28;20566;-70
2022/07/08 03:43:16;;;;;;;0.22;0.22;;;14.40;78.70;;;16.24;64.92;102917.56;2050581;28;20109;-71
2022/07/08 03:44:19;;;;;;;0.30;0.30;;;14.40;78.70;;;16.25;64.81;102909.06;2060441;28;20148;-71
2022/07/08 03:45:22;;;;;;;0.30;0.30;;;14.50;78.80;;;16.27;64.94;102912.25;2060630;28;20088;-70
2022/07/08 03:46:25;;;;;;;0.20;0.20;;;14.50;78.90;;;16.28;65.07;102911.13;2051136;28;20133;-71
2022/07/08 03:47:28;;;;;;;0.20;0.20;;;14.50;78.90;;;16.30;65.00;102914.31;2051409;28;20055;-70
2022/07/08 03:48:31;;;;;;;0.30;0.30;;;14.50;78.90;;;16.32;65.25;102903.91;2060438;28;20126;-70
2022/07/08 03:49:34;;;;;;;0.20;0.20;;;14.50;78.90;;;16.34;65.20;102915.28;2059919;28;20169;-70
2022/07/08 03:50:38;;;;;;;0.30;0.30;;;14.50;79.00;;;16.35;64.96;102914.13;2060100;28;20051;-71
2022/07/08 03:51:40;;;;;;;0.30;0.30;;;14.60;79.00;;;16.36;65.02;102913.00;2061422;28;20172;-70
2022/07/08 03:52:45;;;;;;;0.10;0.10;;;14.60;79.00;;;16.37;65.14;102916.53;2052415;28;20503;-71
2022/07/08 03:53:48;;;;;;;0.15;0.15;;;14.60;79.00;;;16.40;65.00;102918.59;2051977;28;20097;-71
2022/07/08 03:54:51;;;;;;;0.20;0.20;;;14.60;79.00;;;16.42;65.15;102917.16;2060266;28;20058;-71
2022/07/08 03:55:55;;;;;;;0.28;0.28;;;14.60;79.00;;;16.42;65.21;102911.72;2059602;28;20513;-70
2022/07/08 03:56:58;;;;;;;0.20;0.20;;;14.70;79.00;;;16.44;64.98;102914.09;2054212;28;20098;-70
2022/07/08 03:58:02;;;;;;;0.30;0.30;;;14.70;79.10;;;16.44;65.18;102914.91;2054399;28;20081;-71
2022/07/08 03:59:05;;;;;;;0.20;0.20;;;14.70;79.10;;;16.48;65.04;102916.97;2059080;28;20410;-71
2022/07/08 04:00:09;;;;;;;0.30;0.30;;;14.70;79.10;;;16.49;65.25;102910.41;2059269;28;20256;-71
2022/07/08 04:01:12;;;;;;;0.20;0.20;;;14.70;79.10;;;16.49;65.14;102915.88;2060565;28;20120;-70
2022/07/08 04:02:15;;;;;;;0.25;0.25;;;14.70;79.20;;;16.49;65.28;102915.88;2058378;28;20476;-71
2022/07/08 04:03:18;;;;;;;0.30;0.30;;;14.70;79.20;;;16.50;65.31;102925.63;2051089;28;20109;-71
2022/07/08 04:04:21;;;;;;;0.20;0.20;;;14.70;79.20;;;16.50;65.54;102925.63;2051531;28;20600;-71
2022/07/08 04:05:24;;;;;;;0.20;0.20;;;14.80;79.30;;;16.49;65.54;102919.38;2059539;28;20532;-70
2022/07/08 04:06:26;;;;;;;0.20;0.20;;;14.70;79.90;;;16.53;65.39;102922.25;2059912;28;20078;-70
2022/07/08 04:07:29;;;;;;;0.20;0.20;;;14.80;79.40;;;16.53;65.53;102922.25;2059075;28;20054;-70
2022/07/08 04:08:32;;;;;;;0.30;0.30;;;14.80;79.40;;;16.54;65.96;102921.13;2060106;28;20081;-70
2022/07/08 04:09:36;;;;;;;0.30;0.30;;;14.80;79.40;;;16.56;65.45;102921.59;2060044;28;20054;-70
2022/07/08 04:10:38;;;;;;;0.30;0.30;;;14.80;79.40;;;16.56;65.51;102919.66;2052286;28;20183;-71
2022/07/08 04:11:42;;;;;;;0.30;0.30;;;14.80;79.40;;;16.55;65.58;102918.09;2053280;28;20054;-71
2022/07/08 04:12:45;;;;;;;0.30;0.30;;;14.80;79.40;;;16.57;65.66;102915.03;2059553;28;20101;-70
2022/07/08 04:13:50;;;;;;;0.30;0.30;;;14.80;79.50;;;16.56;65.54;102916.94;2051346;28;20121;-70
2022/07/08 04:14:52;;;;;;;0.30;0.30;;;14.80;79.60;;;16.58;65.71;102913.88;2051279;28;20514;-70
2022/07/08 04:15:56;;;;;;;0.30;0.30;;;14.80;79.60;;;16.57;65.76;102909.56;2059689;28;20100;-70
2022/07/08 04:16:59;;;;;;;0.25;0.25;;;14.80;79.70;;;16.59;66.01;102915.47;2059938;28;20082;-71
2022/07/08 04:18:02;;;;;;;0.20;0.20;;;14.80;79.70;;;16.57;65.94;102910.34;2060182;28;20177;-71
2022/07/08 04:19:05;;;;;;;0.20;0.20;;;14.90;79.90;;;16.63;66.12;102919.16;2059821;28;20058;-71
2022/07/08 04:20:09;;;;;;;0.32;0.32;;;14.90;79.90;;;16.63;66.22;102922.69;2058739;28;20089;-70
2022/07/08 04:21:13;;;;;;;0.20;0.20;;;14.90;80.00;;;16.66;66.21;102910.31;2058679;28;20414;-70
2022/07/08 04:22:15;;;;;;;0.20;0.20;;;14.90;80.20;;;16.66;66.19;102913.03;2058854;28;20133;-70
2022/07/08 04:23:18;;;;;;;0.22;0.22;;;14.90;80.10;;;16.69;66.18;102915.09;2050664;28;20130;-69
2022/07/08 04:24:21;;;;;;;0.30;0.30;;;14.90;80.80;;;16.71;66.75;102921.84;2043433;28;20499;-70
2022/07/08 04:25:24;;;;;;;0.38;0.38;;;14.90;80.30;;;16.74;66.24;102914.91;2051837;28;20053;-70
2022/07/08 04:26:31;;;;;;;0.30;0.30;;;15.00;80.40;;;16.76;66.37;102918.09;2049906;28;20094;-71
2022/07/08 04:27:34;;;;;;;0.20;0.20;;;15.00;80.40;;;16.78;66.19;102921.28;2049723;28;20051;-71